Time;durP1;ratioP1;P1;durP2;ratioP2;P2;SDS_P1;SDS_P2;PMS_P1;PMS_P2;Temp;Humidity;BMP_temperature;BMP_pressure;BME280_temperature;BME280_humidity;BME280_pressure;Samples;Min_cycle;Max_cycle;Signal;HPM_P1;HPM_P2
2023/12/27 00:04:04;;;;;;;16.60;7.13;;;;;;;;;;10123045;28;20041;-71
2023/12/27 00:08:57;;;;;;;13.82;6.88;;;;;;;;;;10140493;28;20520;-71
2023/12/27 00:13:49;;;;;;;8.23;5.40;;;;;;;;;;10129796;28;20045;-72
2023/12/27 00:18:40;;;;;;;9.52;6.20;;;;;;;;;;10135320;28;20060;-72
2023/12/27 00:23:33;;;;;;;9.77;5.43;;;;;;;;;;10133194;28;20072;-71
2023/12/27 00:28:25;;;;;;;10.43;6.85;;;;;;;;;;10137197;28;20048;-71
2023/12/27 00:33:17;;;;;;;8.57;6.30;;;;;;;;;;10137401;28;20083;-72
2023/12/27 00:38:10;;;;;;;7.90;5.50;;;;;;;;;;10141208;28;20402;-71
2023/12/27 00:43:02;;;;;;;7.70;5.97;;;;;;;;;;10144489;28;20357;-71
2023/12/27 00:47:54;;;;;;;14.40;8.38;;;;;;;;;;10127429;28;20127;-71
2023/12/27 00:52:47;;;;;;;15.18;8.82;;;;;;;;;;10137012;28;20091;-71
2023/12/27 00:57:39;;;;;;;16.95;11.15;;;;;;;;;;10140181;28;20036;-71
2023/12/27 01:02:31;;;;;;;10.68;8.95;;;;;;;;;;10139711;28;20506;-71
2023/12/27 01:07:23;;;;;;;12.95;10.00;;;;;;;;;;10143942;28;20044;-71
2023/12/27 01:12:15;;;;;;;14.98;10.70;;;;;;;;;;10159504;28;20044;-71
2023/12/27 01:17:07;;;;;;;18.90;11.90;;;;;;;;;;10110200;28;20091;-71
2023/12/27 01:21:59;;;;;;;11.90;9.82;;;;;;;;;;10107974;28;20540;-71
2023/12/27 01:26:51;;;;;;;12.48;10.85;;;;;;;;;;10114685;28;20053;-71
2023/12/27 01:31:43;;;;;;;16.98;10.57;;;;;;;;;;10104471;28;20063;-71
2023/12/27 01:36:35;;;;;;;11.48;9.30;;;;;;;;;;10105486;28;20045;-71
2023/12/27 01:41:27;;;;;;;11.82;9.75;;;;;;;;;;10106120;28;20079;-71
2023/12/27 01:46:19;;;;;;;12.80;8.93;;;;;;;;;;10121278;28;20384;-71
2023/12/27 01:51:14;;;;;;;19.92;10.43;;;;;;;;;;10120374;28;20098;-72
2023/12/27 01:56:06;;;;;;;11.80;9.85;;;;;;;;;;10105250;28;20134;-71
2023/12/27 02:00:58;;;;;;;10.27;9.20;;;;;;;;;;10104376;28;20067;-71
2023/12/27 02:05:51;;;;;;;14.73;10.73;;;;;;;;;;10124476;28;20096;-71
2023/12/27 02:10:43;;;;;;;13.65;8.75;;;;;;;;;;10120407;28;20049;-71
2023/12/27 02:15:36;;;;;;;10.07;8.32;;;;;;;;;;10110610;28;20059;-71
2023/12/27 02:20:28;;;;;;;16.08;9.23;;;;;;;;;;10120249;28;20896;-71
2023/12/27 02:25:20;;;;;;;16.48;11.77;;;;;;;;;;10116668;28;20048;-71
2023/12/27 02:30:21;;;;;;;12.40;10.70;;;;;;;;;;10087617;28;20859;-71
2023/12/27 02:35:14;;;;;;;15.77;11.02;;;;;;;;;;10116189;28;20077;-71
2023/12/27 02:40:07;;;;;;;17.33;11.55;;;;;;;;;;10122642;28;20033;-72
2023/12/27 02:45:00;;;;;;;18.08;12.65;;;;;;;;;;10109967;28;20044;-71
2023/12/27 02:49:52;;;;;;;17.60;10.57;;;;;;;;;;10112059;28;20052;-71
2023/12/27 02:54:44;;;;;;;16.17;8.80;;;;;;;;;;10110926;28;20068;-71
2023/12/27 02:59:35;;;;;;;11.88;9.55;;;;;;;;;;10127403;28;20120;-71
2023/12/27 03:04:27;;;;;;;14.77;10.13;;;;;;;;;;10111854;28;20107;-71
2023/12/27 03:09:22;;;;;;;17.20;8.35;;;;;;;;;;10110209;28;20388;-71
2023/12/27 03:14:14;;;;;;;11.43;8.73;;;;;;;;;;10110965;28;20059;-71
2023/12/27 03:19:06;;;;;;;14.85;8.95;;;;;;;;;;10111296;28;20062;-71
2023/12/27 03:23:58;;;;;;;10.60;9.38;;;;;;;;;;10126692;28;20048;-71
2023/12/27 03:28:50;;;;;;;13.38;9.48;;;;;;;;;;10109867;28;20088;-71
2023/12/27 03:33:42;;;;;;;10.73;8.38;;;;;;;;;;10110180;28;20072;-71
2023/12/27 03:38:34;;;;;;;8.60;7.80;;;;;;;;;;10126753;28;20044;-71
2023/12/27 03:43:26;;;;;;;10.20;7.70;;;;;;;;;;10109690;28;20037;-71
2023/12/27 03:48:17;;;;;;;11.55;8.27;;;;;;;;;;10110245;28;20037;-71
2023/12/27 03:53:10;;;;;;;11.07;7.53;;;;;;;;;;10109121;28;20068;-71
2023/12/27 03:58:02;;;;;;;7.18;6.15;;;;;;;;;;10125005;28;20127;-71
2023/12/27 04:02:54;;;;;;;7.78;6.35;;;;;;;;;;10111322;28;20044;-71
2023/12/27 04:07:46;;;;;;;12.75;6.55;;;;;;;;;;10110670;28;20083;-71
2023/12/27 04:12:38;;;;;;;8.25;7.10;;;;;;;;;;10120288;28;20112;-71
2023/12/27 04:17:30;;;;;;;11.25;6.90;;;;;;;;;;10125905;28;20135;-71
2023/12/27 04:22:22;;;;;;;9.70;7.60;;;;;;;;;;10108506;28;20045;-71
2023/12/27 04:27:13;;;;;;;8.30;7.25;;;;;;;;;;10108955;28;20344;-71
2023/12/27 04:32:06;;;;;;;9.07;7.40;;;;;;;;;;10122714;28;20084;-71
2023/12/27 04:36:58;;;;;;;9.85;7.85;;;;;;;;;;10109054;28;20101;-71
2023/12/27 04:41:49;;;;;;;14.68;8.15;;;;;;;;;;10108499;28;20080;-71
2023/12/27 04:46:42;;;;;;;13.50;8.07;;;;;;;;;;10124244;28;20551;-71
2023/12/27 04:51:34;;;;;;;13.13;7.75;;;;;;;;;;10108064;28;20107;-71
2023/12/27 04:56:26;;;;;;;12.27;8.20;;;;;;;;;;10108505;28;20048;-71
2023/12/27 05:01:18;;;;;;;17.38;8.82;;;;;;;;;;10107332;28;20116;-71
2023/12/27 05:06:11;;;;;;;10.90;7.07;;;;;;;;;;10121650;28;20132;-71
2023/12/27 05:11:13;;;;;;;14.27;8.90;;;;;;;;;;10108607;28;20072;-71
2023/12/27 05:16:13;;;;;;;11.35;8.40;;;;;;;;;;10106855;28;20049;-71
2023/12/27 05:21:06;;;;;;;9.55;8.18;;;;;;;;;;10108100;28;20171;-71
2023/12/27 05:25:58;;;;;;;10.23;7.30;;;;;;;;;;10105670;28;20474;-71
2023/12/27 05:30:50;;;;;;;11.15;7.78;;;;;;;;;;10106370;28;20056;-71
2023/12/27 05:35:42;;;;;;;9.40;8.00;;;;;;;;;;10106789;28;20044;-71
2023/12/27 05:40:34;;;;;;;13.20;8.82;;;;;;;;;;10107024;28;20033;-71
2023/12/27 05:45:26;;;;;;;19.40;13.30;;;;;;;;;;10106681;28;20138;-71
2023/12/27 05:50:18;;;;;;;33.70;28.65;;;;;;;;;;10106188;28;20047;-71
2023/12/27 05:55:10;;;;;;;23.33;18.05;;;;;;;;;;10106443;28;20132;-71
2023/12/27 06:00:02;;;;;;;101.95;91.00;;;;;;;;;;10104812;28;20041;-71
2023/12/27 06:05:03;;;;;;;31.85;26.10;;;;;;;;;;10107596;28;20081;-71
2023/12/27 06:09:55;;;;;;;47.47;37.97;;;;;;;;;;10107080;28;20140;-72
2023/12/27 06:14:47;;;;;;;14.85;12.93;;;;;;;;;;10111338;28;20049;-71
2023/12/27 06:19:39;;;;;;;20.00;15.90;;;;;;;;;;10114452;28;20073;-73
2023/12/27 06:24:31;;;;;;;20.25;16.33;;;;;;;;;;10113434;28;20136;-71
2023/12/27 06:29:23;;;;;;;21.00;15.55;;;;;;;;;;10113237;28;20353;-71
2023/12/27 06:34:17;;;;;;;49.28;41.35;;;;;;;;;;10111681;28;20053;-71
2023/12/27 06:39:09;;;;;;;15.23;11.88;;;;;;;;;;10113115;28;20516;-71
2023/12/27 06:44:02;;;;;;;60.03;42.20;;;;;;;;;;10117167;28;20045;-71
2023/12/27 06:48:54;;;;;;;16.65;11.18;;;;;;;;;;10122126;28;20074;-72
2023/12/27 06:53:46;;;;;;;24.00;16.80;;;;;;;;;;10111410;28;20103;-72
2023/12/27 06:58:38;;;;;;;26.85;18.05;;;;;;;;;;10111916;28;20064;-72
2023/12/27 07:03:30;;;;;;;28.02;21.48;;;;;;;;;;10111750;28;20396;-71
2023/12/27 07:08:22;;;;;;;15.60;13.00;;;;;;;;;;10113593;28;20041;-71
2023/12/27 07:13:14;;;;;;;23.30;20.65;;;;;;;;;;10110163;28;20052;-71
2023/12/27 07:18:07;;;;;;;12.15;10.63;;;;;;;;;;10112384;28;20079;-71
2023/12/27 07:22:59;;;;;;;9.77;7.65;;;;;;;;;;10114300;28;20048;-71
2023/12/27 07:27:51;;;;;;;9.90;7.78;;;;;;;;;;10108575;28;20049;-71
2023/12/27 07:32:43;;;;;;;20.50;9.63;;;;;;;;;;10111357;28;20114;-71
2023/12/27 07:37:34;;;;;;;20.27;11.85;;;;;;;;;;10113254;28;20057;-71
2023/12/27 07:42:26;;;;;;;16.20;11.52;;;;;;;;;;10139035;28;20043;-71
2023/12/27 07:47:18;;;;;;;12.88;9.82;;;;;;;;;;10113017;28;20045;-71
2023/12/27 07:52:10;;;;;;;19.17;12.30;;;;;;;;;;10116928;28;20040;-71
2023/12/27 07:57:02;;;;;;;17.90;13.40;;;;;;;;;;10122299;28;20476;-71
2023/12/27 08:01:54;;;;;;;20.48;12.63;;;;;;;;;;10109945;28;20349;-71
2023/12/27 08:06:47;;;;;;;16.13;12.20;;;;;;;;;;10130204;28;20047;-72
2023/12/27 08:11:38;;;;;;;15.20;12.48;;;;;;;;;;10136072;28;20049;-71
2023/12/27 08:16:30;;;;;;;16.90;14.20;;;;;;;;;;10144354;28;20044;-72
2023/12/27 08:21:22;;;;;;;20.25;15.27;;;;;;;;;;10142797;28;20046;-71
2023/12/27 08:26:14;;;;;;;20.35;16.63;;;;;;;;;;10143924;28;20033;-71
2023/12/27 08:31:07;;;;;;;19.73;14.65;;;;;;;;;;10144110;28;20113;-72
2023/12/27 08:36:02;;;;;;;26.30;17.15;;;;;;;;;;10140827;28;20130;-71
2023/12/27 08:40:54;;;;;;;13.35;10.77;;;;;;;;;;10127464;28;20049;-71
2023/12/27 08:45:46;;;;;;;19.58;10.35;;;;;;;;;;10146050;28;20131;-71
2023/12/27 08:50:40;;;;;;;14.07;10.57;;;;;;;;;;10145227;28;20048;-72
2023/12/27 08:55:32;;;;;;;14.70;12.05;;;;;;;;;;10134984;28;20083;-72
2023/12/27 09:00:24;;;;;;;18.55;13.35;;;;;;;;;;10146458;28;20048;-70
2023/12/27 09:05:16;;;;;;;19.38;13.23;;;;;;;;;;10145752;28;20135;-72
2023/12/27 09:10:10;;;;;;;21.75;13.23;;;;;;;;;;10133131;28;20051;-71
2023/12/27 09:15:02;;;;;;;19.27;12.15;;;;;;;;;;10146135;28;20066;-72
2023/12/27 09:19:54;;;;;;;21.75;14.25;;;;;;;;;;10145353;28;20043;-72
2023/12/27 09:24:46;;;;;;;17.17;13.95;;;;;;;;;;10134620;28;20095;-72
2023/12/27 09:29:39;;;;;;;25.63;18.05;;;;;;;;;;10131203;28;20077;-72
2023/12/27 09:34:30;;;;;;;21.25;13.48;;;;;;;;;;10143522;28;20118;-72
2023/12/27 09:39:22;;;;;;;19.85;13.93;;;;;;;;;;10145081;28;20426;-72
2023/12/27 09:44:18;;;;;;;23.80;13.40;;;;;;;;;;10145311;28;20053;-72
2023/12/27 09:49:11;;;;;;;20.48;12.75;;;;;;;;;;10153312;28;20415;-72
2023/12/27 09:54:03;;;;;;;18.73;14.15;;;;;;;;;;10148950;28;20052;-72
2023/12/27 09:59:00;;;;;;;24.00;14.23;;;;;;;;;;10154533;28;20080;-72
2023/12/27 10:04:15;;;;;;;20.77;15.40;;;;;;;;;;10152404;28;20052;-72
2023/12/27 10:09:07;;;;;;;19.75;14.23;;;;;;;;;;10157367;28;20110;-71
2023/12/27 10:13:59;;;;;;;23.70;14.23;;;;;;;;;;10146921;28;20144;-71
2023/12/27 10:18:51;;;;;;;16.48;12.43;;;;;;;;;;10151854;28;20111;-72
2023/12/27 10:23:43;;;;;;;11.82;10.63;;;;;;;;;;10144673;28;20479;-72
2023/12/27 10:28:35;;;;;;;20.15;11.65;;;;;;;;;;10147185;28;20105;-72
2023/12/27 10:33:27;;;;;;;16.65;11.35;;;;;;;;;;10143581;28;20430;-71
2023/12/27 10:38:21;;;;;;;16.58;9.88;;;;;;;;;;10148152;28;20360;-72
2023/12/27 10:43:14;;;;;;;15.85;9.73;;;;;;;;;;10142299;28;20490;-72
2023/12/27 10:48:06;;;;;;;17.13;8.75;;;;;;;;;;10130031;28;20041;-72
2023/12/27 10:53:06;;;;;;;14.15;9.82;;;;;;;;;;10131598;28;20637;-72
2023/12/27 10:58:00;;;;;;;9.80;8.73;;;;;;;;;;10139037;28;20171;-72
2023/12/27 11:02:53;;;;;;;10.68;8.15;;;;;;;;;;10141224;28;20060;-72
2023/12/27 11:07:46;;;;;;;16.77;8.68;;;;;;;;;;10134093;28;20447;-72
2023/12/27 11:12:38;;;;;;;14.75;9.27;;;;;;;;;;10122522;28;20049;-71
2023/12/27 11:17:35;;;;;;;10.95;8.82;;;;;;;;;;10136587;28;20049;-71
2023/12/27 11:22:27;;;;;;;12.57;9.10;;;;;;;;;;10144394;28;20040;-71
2023/12/27 11:27:20;;;;;;;17.98;9.70;;;;;;;;;;10144895;28;20048;-71
2023/12/27 11:32:11;;;;;;;23.90;9.52;;;;;;;;;;10142795;28;20048;-71
2023/12/27 11:37:05;;;;;;;17.13;9.30;;;;;;;;;;10134738;28;20075;-71
2023/12/27 11:42:00;;;;;;;18.33;11.30;;;;;;;;;;10134983;28;20049;-71
2023/12/27 11:46:52;;;;;;;17.05;10.38;;;;;;;;;;10133276;28;20040;-71
2023/12/27 11:51:44;;;;;;;9.50;8.27;;;;;;;;;;10125992;28;20045;-71
2023/12/27 11:56:37;;;;;;;12.52;7.70;;;;;;;;;;10123171;28;20045;-71
2023/12/27 12:01:36;;;;;;;23.92;17.02;;;;;;;;;;10143676;28;20127;-71
2023/12/27 12:06:46;;;;;;;11.43;8.02;;;;;;;;;;10137712;28;20128;-71
2023/12/27 12:11:44;;;;;;;13.15;8.25;;;;;;;;;;10142719;28;20132;-70
2023/12/27 12:16:37;;;;;;;12.57;9.38;;;;;;;;;;10135424;28;20041;-70
2023/12/27 12:21:30;;;;;;;14.13;9.65;;;;;;;;;;10126509;28;20056;-70
2023/12/27 12:26:22;;;;;;;19.52;9.77;;;;;;;;;;10125202;28;20372;-70
2023/12/27 12:31:13;;;;;;;40.67;9.40;;;;;;;;;;10115754;28;20479;-71
2023/12/27 12:36:06;;;;;;;12.48;9.55;;;;;;;;;;10136930;28;20098;-71
2023/12/27 12:40:58;;;;;;;13.15;10.13;;;;;;;;;;10135220;28;20037;-70
2023/12/27 12:45:50;;;;;;;18.48;10.50;;;;;;;;;;10140733;28;20052;-71
2023/12/27 12:50:42;;;;;;;13.07;9.95;;;;;;;;;;10141178;28;20037;-70
2023/12/27 12:55:34;;;;;;;13.45;9.82;;;;;;;;;;10145884;28;20053;-71
2023/12/27 13:00:25;;;;;;;20.98;11.00;;;;;;;;;;10129584;28;20043;-71
2023/12/27 13:05:18;;;;;;;12.07;10.75;;;;;;;;;;10121707;28;20053;-71
2023/12/27 13:10:10;;;;;;;20.27;11.35;;;;;;;;;;10130217;28;20506;-71
2023/12/27 13:15:03;;;;;;;13.82;10.25;;;;;;;;;;10128071;28;20082;-71
2023/12/27 13:19:55;;;;;;;19.70;11.60;;;;;;;;;;10125842;28;20139;-71
2023/12/27 13:24:47;;;;;;;20.05;13.52;;;;;;;;;;10138498;28;20040;-71
2023/12/27 13:29:39;;;;;;;19.77;14.48;;;;;;;;;;10121224;28;20037;-71
2023/12/27 13:34:32;;;;;;;17.83;11.75;;;;;;;;;;10139475;28;20080;-71
2023/12/27 13:39:24;;;;;;;15.00;10.75;;;;;;;;;;10129885;28;20065;-71
2023/12/27 13:44:17;;;;;;;20.13;13.05;;;;;;;;;;10130672;28;20055;-71
2023/12/27 13:49:09;;;;;;;14.52;9.50;;;;;;;;;;10124764;28;20060;-71
2023/12/27 13:54:02;;;;;;;13.55;10.38;;;;;;;;;;10117907;28;20513;-71
2023/12/27 13:59:08;;;;;;;15.70;10.15;;;;;;;;;;10131186;28;20460;-71
2023/12/27 14:04:01;;;;;;;13.63;9.70;;;;;;;;;;10144649;28;20048;-71
2023/12/27 14:08:53;;;;;;;17.08;11.07;;;;;;;;;;10144314;28;20063;-71
2023/12/27 14:13:45;;;;;;;15.57;11.05;;;;;;;;;;10131528;28;20049;-71
2023/12/27 14:18:37;;;;;;;17.98;12.85;;;;;;;;;;10144654;28;20086;-71
2023/12/27 14:23:29;;;;;;;14.50;9.82;;;;;;;;;;10120885;28;20456;-71
2023/12/27 14:28:21;;;;;;;12.95;9.18;;;;;;;;;;10129012;28;20044;-71
2023/12/27 14:33:13;;;;;;;14.52;9.40;;;;;;;;;;10120027;28;20041;-72
2023/12/27 14:38:06;;;;;;;21.33;9.85;;;;;;;;;;10111648;28;20107;-71
2023/12/27 14:42:58;;;;;;;12.23;9.80;;;;;;;;;;10138095;28;20048;-71
2023/12/27 14:47:51;;;;;;;15.02;11.25;;;;;;;;;;10127306;28;20383;-71
2023/12/27 14:52:43;;;;;;;17.70;11.23;;;;;;;;;;10136280;28;20051;-71
2023/12/27 14:57:35;;;;;;;15.23;10.65;;;;;;;;;;10151499;28;20098;-71
2023/12/27 15:02:27;;;;;;;16.65;11.60;;;;;;;;;;10130050;28;20048;-71
2023/12/27 15:07:19;;;;;;;21.15;11.77;;;;;;;;;;10140438;28;20577;-71
2023/12/27 15:12:11;;;;;;;15.10;12.70;;;;;;;;;;10142112;28;20044;-71
2023/12/27 15:17:04;;;;;;;19.23;12.02;;;;;;;;;;10127167;28;20076;-71
2023/12/27 15:21:55;;;;;;;19.02;13.13;;;;;;;;;;10133913;28;20102;-71
2023/12/27 15:26:48;;;;;;;17.60;13.57;;;;;;;;;;10139060;28;20056;-71
2023/12/27 15:31:40;;;;;;;17.48;13.27;;;;;;;;;;10145656;28;20376;-72
2023/12/27 15:36:36;;;;;;;20.35;11.50;;;;;;;;;;10148010;28;20064;-71
2023/12/27 15:41:28;;;;;;;18.45;11.88;;;;;;;;;;10139524;28;20051;-71
2023/12/27 15:46:21;;;;;;;16.42;11.50;;;;;;;;;;10136609;28;20071;-71
2023/12/27 15:51:25;;;;;;;20.88;14.13;;;;;;;;;;10145345;28;20070;-71
2023/12/27 15:56:28;;;;;;;19.50;14.30;;;;;;;;;;10118523;28;20383;-71
2023/12/27 16:01:21;;;;;;;29.60;20.13;;;;;;;;;;10140611;28;20040;-71
2023/12/27 16:06:13;;;;;;;26.70;18.10;;;;;;;;;;10144513;28;20053;-71
2023/12/27 16:11:05;;;;;;;25.77;17.23;;;;;;;;;;10146153;28;20056;-71
2023/12/27 16:15:57;;;;;;;38.63;17.05;;;;;;;;;;10144807;28;20056;-71
2023/12/27 16:20:49;;;;;;;27.55;18.45;;;;;;;;;;10126326;28;20348;-71
2023/12/27 16:25:41;;;;;;;35.25;24.13;;;;;;;;;;10136904;28;20041;-71
2023/12/27 16:30:33;;;;;;;33.15;25.00;;;;;;;;;;10133284;28;20080;-71
2023/12/27 16:35:25;;;;;;;31.95;23.90;;;;;;;;;;10118751;28;20227;-71
2023/12/27 16:40:17;;;;;;;21.88;17.70;;;;;;;;;;10145498;28;20059;-71
2023/12/27 16:45:09;;;;;;;29.73;18.98;;;;;;;;;;10133847;28;20045;-71
2023/12/27 16:50:02;;;;;;;38.10;19.85;;;;;;;;;;10145738;28;20055;-71
2023/12/27 16:54:54;;;;;;;34.92;22.23;;;;;;;;;;10134079;28;20388;-71
2023/12/27 16:59:46;;;;;;;36.60;19.80;;;;;;;;;;10132710;28;20044;-71
2023/12/27 17:04:38;;;;;;;33.85;21.02;;;;;;;;;;10142316;28;20522;-71
2023/12/27 17:09:30;;;;;;;23.95;17.80;;;;;;;;;;10144631;28;20044;-71
2023/12/27 17:14:22;;;;;;;30.45;18.73;;;;;;;;;;10141113;28;20079;-71
2023/12/27 17:19:14;;;;;;;20.85;17.27;;;;;;;;;;10116167;28;20068;-71
2023/12/27 17:24:06;;;;;;;20.33;16.02;;;;;;;;;;10130921;28;20044;-71
2023/12/27 17:28:58;;;;;;;18.17;15.18;;;;;;;;;;10143540;28;20049;-71
2023/12/27 17:33:50;;;;;;;25.60;16.67;;;;;;;;;;10142129;28;20060;-70
2023/12/27 17:38:42;;;;;;;34.35;23.63;;;;;;;;;;10143065;28;20092;-71
2023/12/27 17:43:39;;;;;;;35.65;23.73;;;;;;;;;;10136210;28;20491;-70
2023/12/27 17:48:32;;;;;;;27.58;20.60;;;;;;;;;;10116703;28;20486;-71
2023/12/27 17:53:24;;;;;;;23.45;18.85;;;;;;;;;;10131165;28;20052;-71
2023/12/27 17:58:16;;;;;;;28.60;20.23;;;;;;;;;;10132536;28;20121;-71
2023/12/27 18:03:08;;;;;;;29.23;20.98;;;;;;;;;;10129596;28;20382;-71
2023/12/27 18:08:00;;;;;;;27.25;20.17;;;;;;;;;;10122145;28;20098;-70
2023/12/27 18:12:52;;;;;;;23.80;19.30;;;;;;;;;;10132884;28;20052;-70
2023/12/27 18:17:44;;;;;;;30.40;21.20;;;;;;;;;;10114240;28;20041;-69
2023/12/27 18:22:36;;;;;;;28.45;20.83;;;;;;;;;;10114552;28;20053;-71
2023/12/27 18:27:29;;;;;;;23.38;18.48;;;;;;;;;;10120878;28;20967;-71
2023/12/27 18:32:21;;;;;;;27.30;18.65;;;;;;;;;;10136518;28;20053;-70
2023/12/27 18:37:13;;;;;;;25.88;19.05;;;;;;;;;;10133661;28;20036;-70
2023/12/27 18:42:05;;;;;;;23.02;19.17;;;;;;;;;;10129380;28;20375;-71
2023/12/27 18:46:57;;;;;;;29.75;19.75;;;;;;;;;;10113793;28;20037;-71
2023/12/27 18:51:49;;;;;;;24.63;17.75;;;;;;;;;;10117897;28;20448;-71
2023/12/27 18:56:41;;;;;;;24.10;20.08;;;;;;;;;;10123549;28;20131;-71
2023/12/27 19:01:34;;;;;;;28.55;19.33;;;;;;;;;;10113036;28;20041;-71
2023/12/27 19:06:26;;;;;;;28.75;19.48;;;;;;;;;;10121618;28;21880;-70
2023/12/27 19:11:22;;;;;;;29.00;18.48;;;;;;;;;;10108838;28;20045;-70
2023/12/27 19:16:14;;;;;;;27.70;20.67;;;;;;;;;;10109684;28;20045;-71
2023/12/27 19:21:07;;;;;;;25.92;18.38;;;;;;;;;;10112456;28;20041;-71
2023/12/27 19:26:02;;;;;;;15.98;14.27;;;;;;;;;;10111421;28;20037;-71
2023/12/27 19:30:55;;;;;;;32.72;23.25;;;;;;;;;;10111988;28;20060;-72
2023/12/27 19:35:47;;;;;;;30.02;23.67;;;;;;;;;;10111227;28;20472;-72
2023/12/27 19:40:39;;;;;;;31.98;24.52;;;;;;;;;;10112152;28;20371;-71
2023/12/27 19:45:31;;;;;;;74.95;50.75;;;;;;;;;;10109578;28;20040;-70
2023/12/27 19:50:23;;;;;;;41.17;29.63;;;;;;;;;;10106056;28;20052;-74
2023/12/27 19:55:14;;;;;;;29.92;25.05;;;;;;;;;;10109676;28;20053;-74
2023/12/27 20:00:10;;;;;;;41.38;29.35;;;;;;;;;;10104686;28;20059;-74
2023/12/27 20:05:06;;;;;;;34.65;24.38;;;;;;;;;;10106382;28;20049;-75
2023/12/27 20:09:58;;;;;;;32.28;26.58;;;;;;;;;;10105229;28;20053;-75
2023/12/27 20:14:50;;;;;;;35.35;23.33;;;;;;;;;;10112460;28;20040;-75
2023/12/27 20:19:42;;;;;;;25.85;22.88;;;;;;;;;;10110493;28;20127;-75
2023/12/27 20:24:33;;;;;;;31.25;22.67;;;;;;;;;;10109836;28;20090;-75
2023/12/27 20:29:26;;;;;;;30.98;23.33;;;;;;;;;;10108052;28;20526;-73
2023/12/27 20:34:18;;;;;;;27.98;21.98;;;;;;;;;;10109630;28;20455;-73
2023/12/27 20:39:10;;;;;;;35.53;24.50;;;;;;;;;;10108896;28;20041;-72
2023/12/27 20:44:02;;;;;;;30.10;22.67;;;;;;;;;;10108078;28;20040;-73
2023/12/27 20:48:54;;;;;;;35.20;22.85;;;;;;;;;;10109309;28;20049;-73
2023/12/27 20:53:46;;;;;;;26.88;19.88;;;;;;;;;;10104260;28;20060;-72
2023/12/27 20:58:39;;;;;;;31.02;20.00;;;;;;;;;;10112516;28;20693;-73
2023/12/27 21:03:32;;;;;;;23.35;18.75;;;;;;;;;;10104596;28;20045;-73
2023/12/27 21:08:24;;;;;;;26.80;20.80;;;;;;;;;;10101503;28;20041;-73
2023/12/27 21:13:16;;;;;;;24.02;17.70;;;;;;;;;;10103860;28;20312;-72
2023/12/27 21:18:08;;;;;;;21.05;18.20;;;;;;;;;;10107214;28;20115;-73
2023/12/27 21:23:00;;;;;;;23.42;19.30;;;;;;;;;;10108371;28;20045;-74
2023/12/27 21:27:53;;;;;;;25.10;20.83;;;;;;;;;;10105734;28;20056;-73
2023/12/27 21:32:47;;;;;;;29.38;21.35;;;;;;;;;;10107197;28;20136;-73
2023/12/27 21:37:41;;;;;;;24.20;20.02;;;;;;;;;;10104907;28;20106;-73
2023/12/27 21:42:33;;;;;;;22.40;18.60;;;;;;;;;;10107931;28;20055;-72
2023/12/27 21:47:25;;;;;;;21.00;18.15;;;;;;;;;;10106847;28;20045;-73
2023/12/27 21:52:17;;;;;;;23.65;17.65;;;;;;;;;;10106296;28;20048;-73
2023/12/27 21:57:09;;;;;;;22.20;18.98;;;;;;;;;;10106652;28;20365;-73
2023/12/27 22:02:01;;;;;;;22.08;19.05;;;;;;;;;;10107343;28;20037;-73
2023/12/27 22:06:53;;;;;;;26.45;19.38;;;;;;;;;;10105990;28;20376;-73
2023/12/27 22:11:44;;;;;;;25.13;19.65;;;;;;;;;;10106801;28;20059;-73
2023/12/27 22:16:36;;;;;;;25.58;19.95;;;;;;;;;;10129487;28;20524;-73
2023/12/27 22:21:29;;;;;;;23.08;18.10;;;;;;;;;;10128397;28;20087;-73
2023/12/27 22:26:22;;;;;;;27.15;19.55;;;;;;;;;;10144561;28;20052;-73
2023/12/27 22:31:18;;;;;;;24.17;18.08;;;;;;;;;;10103259;28;20045;-73
2023/12/27 22:36:10;;;;;;;21.88;18.85;;;;;;;;;;10134081;28;20045;-73
2023/12/27 22:41:03;;;;;;;21.58;18.98;;;;;;;;;;10143915;28;20423;-73
2023/12/27 22:45:55;;;;;;;26.10;20.10;;;;;;;;;;10143228;28;20474;-73
2023/12/27 22:50:47;;;;;;;25.85;20.88;;;;;;;;;;10128493;28;20041;-73
2023/12/27 22:55:39;;;;;;;24.05;21.55;;;;;;;;;;10142930;28;20506;-74
2023/12/27 23:00:30;;;;;;;28.35;21.45;;;;;;;;;;10124147;28;20047;-73
2023/12/27 23:05:25;;;;;;;29.40;14.43;;;;;;;;;;10125340;28;20044;-73
2023/12/27 23:10:17;;;;;;;21.52;15.63;;;;;;;;;;10146654;28;20049;-72
2023/12/27 23:15:10;;;;;;;29.85;14.85;;;;;;;;;;10141354;28;20138;-73
2023/12/27 23:20:03;;;;;;;19.23;15.43;;;;;;;;;;10133501;28;20045;-73
2023/12/27 23:24:56;;;;;;;19.02;14.75;;;;;;;;;;10127427;28;20053;-73
2023/12/27 23:29:48;;;;;;;15.35;13.15;;;;;;;;;;10112288;28;20067;-74
2023/12/27 23:34:40;;;;;;;16.45;14.40;;;;;;;;;;10124256;28;20048;-73
2023/12/27 23:39:32;;;;;;;19.63;15.02;;;;;;;;;;10135759;28;20132;-73
2023/12/27 23:44:25;;;;;;;51.95;35.63;;;;;;;;;;10134395;28;20474;-73
2023/12/27 23:49:17;;;;;;;29.77;19.83;;;;;;;;;;10114884;28;20072;-73
2023/12/27 23:54:09;;;;;;;29.02;20.80;;;;;;;;;;10116775;28;20060;-73
2023/12/27 23:59:01;;;;;;;21.23;16.13;;;;;;;;;;10123355;28;20044;-73
